sensor_id;sensor_type;location;lat;lon;timestamp;pressure;altitude;pressure_sealevel;temperature;humidity
18790;BME280;9523;42.650;23.386;2022-07-05T00:01:30;94737.00;;;21.12;52.82
18790;BME280;9523;42.650;23.386;2022-07-05T00:03:58;94718.50;;;20.91;52.12
18790;BME280;9523;42.650;23.386;2022-07-05T00:06:25;94732.84;;;20.99;52.47
18790;BME280;9523;42.650;23.386;2022-07-05T00:08:52;94673.84;;;20.64;51.44
18790;BME280;9523;42.650;23.386;2022-07-05T00:11:19;94733.00;;;21.06;51.92
18790;BME280;9523;42.650;23.386;2022-07-05T00:13:46;94721.44;;;21.02;52.31
18790;BME280;9523;42.650;23.386;2022-07-05T00:16:13;94744.72;;;21.14;52.47
18790;BME280;9523;42.650;23.386;2022-07-05T00:18:40;94746.50;;;21.09;52.39
18790;BME280;9523;42.650;23.386;2022-07-05T00:21:09;94744.16;;;21.08;52.28
18790;BME280;9523;42.650;23.386;2022-07-05T00:23:36;94723.53;;;20.93;51.71
18790;BME280;9523;42.650;23.386;2022-07-05T00:26:02;94709.13;;;20.82;52.06
18790;BME280;9523;42.650;23.386;2022-07-05T00:28:29;94707.03;;;20.75;51.16
18790;BME280;9523;42.650;23.386;2022-07-05T00:30:56;94704.44;;;20.79;52.29
18790;BME280;9523;42.650;23.386;2022-07-05T00:33:23;94719.91;;;20.85;52.39
18790;BME280;9523;42.650;23.386;2022-07-05T00:35:50;94706.00;;;20.80;52.26
18790;BME280;9523;42.650;23.386;2022-07-05T00:38:18;94719.63;;;20.90;52.05
18790;BME280;9523;42.650;23.386;2022-07-05T00:40:45;94721.03;;;20.84;51.66
18790;BME280;9523;42.650;23.386;2022-07-05T00:43:12;94720.25;;;20.84;52.49
18790;BME280;9523;42.650;23.386;2022-07-05T00:45:39;94712.25;;;20.68;51.35
18790;BME280;9523;42.650;23.386;2022-07-05T00:48:06;94733.31;;;20.85;51.86
18790;BME280;9523;42.650;23.386;2022-07-05T00:50:33;94708.69;;;20.64;52.51
18790;BME280;9523;42.650;23.386;2022-07-05T00:53:00;94682.69;;;20.49;51.99
18790;BME280;9523;42.650;23.386;2022-07-05T00:55:28;94687.34;;;20.52;52.10
18790;BME280;9523;42.650;23.386;2022-07-05T00:57:55;94712.16;;;20.65;51.56
18790;BME280;9523;42.650;23.386;2022-07-05T01:00:22;94730.97;;;20.84;51.86
18790;BME280;9523;42.650;23.386;2022-07-05T01:02:49;94728.28;;;20.84;51.72
18790;BME280;9523;42.650;23.386;2022-07-05T01:05:17;94710.16;;;20.77;50.22
18790;BME280;9523;42.650;23.386;2022-07-05T01:07:44;94723.53;;;20.93;51.00
18790;BME280;9523;42.650;23.386;2022-07-05T01:10:10;94703.81;;;20.85;51.04
18790;BME280;9523;42.650;23.386;2022-07-05T01:12:40;94689.50;;;20.78;49.51
18790;BME280;9523;42.650;23.386;2022-07-05T01:15:08;94718.16;;;20.93;49.41
18790;BME280;9523;42.650;23.386;2022-07-05T01:17:36;94718.88;;;20.90;49.08
18790;BME280;9523;42.650;23.386;2022-07-05T01:20:04;94683.97;;;20.55;48.52
18790;BME280;9523;42.650;23.386;2022-07-05T01:22:47;94720.63;;;20.67;48.11
18790;BME280;9523;42.650;23.386;2022-07-05T01:25:16;94743.44;;;20.76;48.04
18790;BME280;9523;42.650;23.386;2022-07-05T01:27:43;94740.31;;;20.74;49.68
18790;BME280;9523;42.650;23.386;2022-07-05T01:30:11;94714.69;;;20.57;49.92
18790;BME280;9523;42.650;23.386;2022-07-05T01:32:38;94757.72;;;20.80;49.51
18790;BME280;9523;42.650;23.386;2022-07-05T01:35:07;94747.06;;;20.84;50.05
18790;BME280;9523;42.650;23.386;2022-07-05T01:37:36;94734.03;;;20.67;50.05
18790;BME280;9523;42.650;23.386;2022-07-05T01:40:05;94716.22;;;20.43;48.59
18790;BME280;9523;42.650;23.386;2022-07-05T01:42:33;94717.00;;;20.43;49.78
18790;BME280;9523;42.650;23.386;2022-07-05T01:44:59;94697.56;;;20.31;49.13
18790;BME280;9523;42.650;23.386;2022-07-05T01:47:26;94700.84;;;20.40;50.25
18790;BME280;9523;42.650;23.386;2022-07-05T01:49:54;94739.31;;;20.63;50.33
18790;BME280;9523;42.650;23.386;2022-07-05T01:52:24;94738.63;;;20.66;50.27
18790;BME280;9523;42.650;23.386;2022-07-05T01:54:55;94712.69;;;20.39;50.77
18790;BME280;9523;42.650;23.386;2022-07-05T01:57:22;94707.25;;;20.35;50.83
18790;BME280;9523;42.650;23.386;2022-07-05T01:59:49;94732.31;;;20.43;50.59
18790;BME280;9523;42.650;23.386;2022-07-05T02:02:16;94712.53;;;20.32;51.01
18790;BME280;9523;42.650;23.386;2022-07-05T02:04:43;94677.59;;;20.12;51.20
18790;BME280;9523;42.650;23.386;2022-07-05T02:07:10;94680.88;;;20.06;51.90
18790;BME280;9523;42.650;23.386;2022-07-05T02:09:37;94686.91;;;20.03;52.22
18790;BME280;9523;42.650;23.386;2022-07-05T02:12:06;94715.50;;;20.14;52.44
18790;BME280;9523;42.650;23.386;2022-07-05T02:14:33;94711.56;;;20.08;52.28
18790;BME280;9523;42.650;23.386;2022-07-05T02:17:00;94701.38;;;19.98;53.01
18790;BME280;9523;42.650;23.386;2022-07-05T02:19:28;94732.97;;;20.08;53.98
18790;BME280;9523;42.650;23.386;2022-07-05T02:21:54;94714.81;;;19.86;54.56
18790;BME280;9523;42.650;23.386;2022-07-05T02:24:21;94740.66;;;19.94;54.74
18790;BME280;9523;42.650;23.386;2022-07-05T02:26:49;94728.44;;;19.81;55.34
18790;BME280;9523;42.650;23.386;2022-07-05T02:29:17;94739.16;;;19.81;55.79
18790;BME280;9523;42.650;23.386;2022-07-05T02:31:44;94712.59;;;19.60;55.45
18790;BME280;9523;42.650;23.386;2022-07-05T02:34:11;94741.09;;;19.68;56.05
18790;BME280;9523;42.650;23.386;2022-07-05T02:36:38;94752.78;;;19.76;55.79
18790;BME280;9523;42.650;23.386;2022-07-05T02:39:05;94752.78;;;19.76;56.04
18790;BME280;9523;42.650;23.386;2022-07-05T02:41:32;94716.00;;;19.45;55.58
18790;BME280;9523;42.650;23.386;2022-07-05T02:43:59;94756.16;;;19.73;54.56
18790;BME280;9523;42.650;23.386;2022-07-05T02:46:28;94761.03;;;19.71;53.54
18790;BME280;9523;42.650;23.386;2022-07-05T02:48:55;94760.47;;;19.78;55.70
18790;BME280;9523;42.650;23.386;2022-07-05T02:51:22;94683.28;;;19.24;53.00
18790;BME280;9523;42.650;23.386;2022-07-05T02:53:49;94742.28;;;19.55;53.83
18790;BME280;9523;42.650;23.386;2022-07-05T02:56:16;94764.97;;;19.74;52.87
18790;BME280;9523;42.650;23.386;2022-07-05T02:58:43;94701.31;;;19.27;52.98
18790;BME280;9523;42.650;23.386;2022-07-05T03:01:10;94717.91;;;19.33;52.96
18790;BME280;9523;42.650;23.386;2022-07-05T03:03:38;94758.97;;;19.64;53.99
18790;BME280;9523;42.650;23.386;2022-07-05T03:06:05;94749.13;;;19.68;56.81
18790;BME280;9523;42.650;23.386;2022-07-05T03:08:32;94760.75;;;19.88;56.42
18790;BME280;9523;42.650;23.386;2022-07-05T03:10:59;94717.66;;;19.50;54.97
18790;BME280;9523;42.650;23.386;2022-07-05T03:13:26;94761.47;;;20.01;55.03
18790;BME280;9523;42.650;23.386;2022-07-05T03:15:53;94722.50;;;19.88;55.84
18790;BME280;9523;42.650;23.386;2022-07-05T03:18:21;94762.63;;;20.15;55.11
18790;BME280;9523;42.650;23.386;2022-07-05T03:20:49;94738.16;;;20.01;53.67
18790;BME280;9523;42.650;23.386;2022-07-05T03:23:16;94733.59;;;20.02;54.14
18790;BME280;9523;42.650;23.386;2022-07-05T03:25:43;94765.63;;;19.98;53.90
18790;BME280;9523;42.650;23.386;2022-07-05T03:28:10;94728.00;;;19.79;54.80
18790;BME280;9523;42.650;23.386;2022-07-05T03:30:37;94763.88;;;19.90;55.17
18790;BME280;9523;42.650;23.386;2022-07-05T03:33:04;94725.41;;;19.83;56.61
18790;BME280;9523;42.650;23.386;2022-07-05T03:35:31;94751.13;;;20.15;56.45
18790;BME280;9523;42.650;23.386;2022-07-05T03:37:59;94761.25;;;20.22;58.51
18790;BME280;9523;42.650;23.386;2022-07-05T03:40:26;94725.19;;;20.03;59.07
18790;BME280;9523;42.650;23.386;2022-07-05T03:42:53;94750.78;;;20.16;59.70
18790;BME280;9523;42.650;23.386;2022-07-05T03:45:20;94684.06;;;19.80;59.74
18790;BME280;9523;42.650;23.386;2022-07-05T03:47:47;94739.81;;;20.06;60.39
18790;BME280;9523;42.650;23.386;2022-07-05T03:50:14;94743.63;;;20.21;61.06
18790;BME280;9523;42.650;23.386;2022-07-05T03:52:41;94742.22;;;20.11;61.76
18790;BME280;9523;42.650;23.386;2022-07-05T03:55:09;94705.47;;;19.80;61.82
18790;BME280;9523;42.650;23.386;2022-07-05T03:57:36;94745.06;;;20.02;62.59
18790;BME280;9523;42.650;23.386;2022-07-05T04:00:04;94736.50;;;19.97;63.90
18790;BME280;9523;42.650;23.386;2022-07-05T04:02:31;94677.47;;;19.62;64.18
18790;BME280;9523;42.650;23.386;2022-07-05T04:04:58;94716.88;;;19.77;64.31
18790;BME280;9523;42.650;23.386;2022-07-05T04:07:25;94742.41;;;20.02;64.88
18790;BME280;9523;42.650;23.386;2022-07-05T04:09:52;94743.50;;;20.01;65.67
18790;BME280;9523;42.650;23.386;2022-07-05T04:12:21;94747.06;;;20.05;61.89
18790;BME280;9523;42.650;23.386;2022-07-05T04:14:48;94665.03;;;19.54;62.62
18790;BME280;9523;42.650;23.386;2022-07-05T04:17:15;94751.66;;;20.21;64.06
18790;BME280;9523;42.650;23.386;2022-07-05T04:19:42;94726.06;;;20.07;64.79
18790;BME280;9523;42.650;23.386;2022-07-05T04:22:09;94727.78;;;20.15;64.55
18790;BME280;9523;42.650;23.386;2022-07-05T04:24:36;94749.63;;;20.30;64.57
18790;BME280;9523;42.650;23.386;2022-07-05T04:27:24;94681.22;;;19.89;65.06
18790;BME280;9523;42.650;23.386;2022-07-05T04:29:51;94745.78;;;20.31;63.61
18790;BME280;9523;42.650;23.386;2022-07-05T04:32:18;94737.34;;;20.29;65.23
18790;BME280;9523;42.650;23.386;2022-07-05T04:34:45;94748.59;;;20.34;65.99
18790;BME280;9523;42.650;23.386;2022-07-05T04:37:12;94750.03;;;20.32;67.06
18790;BME280;9523;42.650;23.386;2022-07-05T04:39:39;94734.31;;;20.30;64.72
18790;BME280;9523;42.650;23.386;2022-07-05T04:42:06;94743.78;;;20.28;58.42
18790;BME280;9523;42.650;23.386;2022-07-05T04:44:34;94744.25;;;20.30;59.36
18790;BME280;9523;42.650;23.386;2022-07-05T04:47:01;94755.41;;;20.47;60.08
18790;BME280;9523;42.650;23.386;2022-07-05T04:49:28;94712.00;;;20.26;61.15
18790;BME280;9523;42.650;23.386;2022-07-05T04:51:55;94725.34;;;20.54;62.72
18790;BME280;9523;42.650;23.386;2022-07-05T04:54:22;94729.28;;;20.60;63.51
18790;BME280;9523;42.650;23.386;2022-07-05T04:56:49;94703.69;;;20.47;63.33
18790;BME280;9523;42.650;23.386;2022-07-05T04:59:16;94664.88;;;20.25;64.60
18790;BME280;9523;42.650;23.386;2022-07-05T05:01:44;94749.34;;;20.82;66.33
18790;BME280;9523;42.650;23.386;2022-07-05T05:04:11;94752.97;;;20.74;64.34
18790;BME280;9523;42.650;23.386;2022-07-05T05:06:38;94736.91;;;20.74;64.16
18790;BME280;9523;42.650;23.386;2022-07-05T05:09:05;94754.41;;;20.87;64.95
18790;BME280;9523;42.650;23.386;2022-07-05T05:11:32;94752.44;;;20.84;61.85
18790;BME280;9523;42.650;23.386;2022-07-05T05:13:59;94758.88;;;20.98;63.19
18790;BME280;9523;42.650;23.386;2022-07-05T05:16:26;94757.84;;;21.03;64.84
18790;BME280;9523;42.650;23.386;2022-07-05T05:18:54;94724.13;;;20.86;65.29
18790;BME280;9523;42.650;23.386;2022-07-05T05:21:22;94724.13;;;20.86;64.33
18790;BME280;9523;42.650;23.386;2022-07-05T05:23:48;94736.38;;;21.03;65.08
18790;BME280;9523;42.650;23.386;2022-07-05T05:26:15;94760.25;;;21.24;65.12
18790;BME280;9523;42.650;23.386;2022-07-05T05:28:42;94742.78;;;21.14;63.36
18790;BME280;9523;42.650;23.386;2022-07-05T05:31:09;94741.47;;;21.08;62.91
18790;BME280;9523;42.650;23.386;2022-07-05T05:33:36;94723.25;;;20.98;63.10
18790;BME280;9523;42.650;23.386;2022-07-05T05:36:05;94759.47;;;21.23;62.54
18790;BME280;9523;42.650;23.386;2022-07-05T05:38:32;94706.66;;;20.92;62.30
18790;BME280;9523;42.650;23.386;2022-07-05T05:40:59;94764.28;;;21.33;62.27
18790;BME280;9523;42.650;23.386;2022-07-05T05:43:26;94741.06;;;21.22;60.73
18790;BME280;9523;42.650;23.386;2022-07-05T05:45:56;94753.50;;;21.30;60.44
18790;BME280;9523;42.650;23.386;2022-07-05T05:48:29;94720.19;;;21.15;59.99
18790;BME280;9523;42.650;23.386;2022-07-05T05:50:56;94749.13;;;21.41;59.77
18790;BME280;9523;42.650;23.386;2022-07-05T05:53:26;94763.09;;;21.50;59.91
18790;BME280;9523;42.650;23.386;2022-07-05T05:55:53;94723.53;;;21.28;58.76
18790;BME280;9523;42.650;23.386;2022-07-05T05:58:21;94769.75;;;21.56;58.24
18790;BME280;9523;42.650;23.386;2022-07-05T06:00:49;94744.00;;;21.36;58.56
18790;BME280;9523;42.650;23.386;2022-07-05T06:03:18;94764.78;;;21.58;57.76
18790;BME280;9523;42.650;23.386;2022-07-05T06:05:45;94768.81;;;21.68;56.86
18790;BME280;9523;42.650;23.386;2022-07-05T06:08:13;94724.66;;;21.46;56.88
18790;BME280;9523;42.650;23.386;2022-07-05T06:10:41;94738.09;;;21.65;57.95
18790;BME280;9523;42.650;23.386;2022-07-05T06:13:15;94729.16;;;21.42;56.97
18790;BME280;9523;42.650;23.386;2022-07-05T06:15:42;94742.63;;;21.61;56.69
18790;BME280;9523;42.650;23.386;2022-07-05T06:18:10;94760.69;;;21.83;56.96
18790;BME280;9523;42.650;23.386;2022-07-05T06:20:38;94770.03;;;21.89;56.75
18790;BME280;9523;42.650;23.386;2022-07-05T06:23:06;94756.09;;;21.84;56.26
18790;BME280;9523;42.650;23.386;2022-07-05T06:25:34;94766.84;;;22.03;55.56
18790;BME280;9523;42.650;23.386;2022-07-05T06:28:05;94775.09;;;22.14;56.75
18790;BME280;9523;42.650;23.386;2022-07-05T06:30:34;94765.91;;;22.15;57.30
18790;BME280;9523;42.650;23.386;2022-07-05T06:33:01;94714.63;;;21.81;55.16
18790;BME280;9523;42.650;23.386;2022-07-05T06:35:29;94774.56;;;22.27;54.24
18790;BME280;9523;42.650;23.386;2022-07-05T06:37:58;94787.00;;;22.35;53.77
18790;BME280;9523;42.650;23.386;2022-07-05T06:40:28;94766.34;;;22.39;54.28
18790;BME280;9523;42.650;23.386;2022-07-05T06:42:56;94772.25;;;22.48;53.32
18790;BME280;9523;42.650;23.386;2022-07-05T06:45:25;94738.84;;;22.27;51.95
18790;BME280;9523;42.650;23.386;2022-07-05T06:47:56;94762.81;;;22.58;52.43
18790;BME280;9523;42.650;23.386;2022-07-05T06:50:24;94762.41;;;22.56;51.67
18790;BME280;9523;42.650;23.386;2022-07-05T06:52:51;94759.75;;;22.60;53.15
18790;BME280;9523;42.650;23.386;2022-07-05T06:55:18;94748.34;;;22.66;52.43
18790;BME280;9523;42.650;23.386;2022-07-05T06:57:45;94753.50;;;22.75;52.00
18790;BME280;9523;42.650;23.386;2022-07-05T07:00:13;94759.34;;;22.80;51.30
18790;BME280;9523;42.650;23.386;2022-07-05T07:02:42;94753.78;;;22.92;50.98
18790;BME280;9523;42.650;23.386;2022-07-05T07:05:09;94747.25;;;22.93;51.43
18790;BME280;9523;42.650;23.386;2022-07-05T07:07:36;94722.28;;;22.93;51.08
18790;BME280;9523;42.650;23.386;2022-07-05T07:10:21;94735.97;;;23.11;50.03
18790;BME280;9523;42.650;23.386;2022-07-05T07:12:48;94742.25;;;23.22;50.50
18790;BME280;9523;42.650;23.386;2022-07-05T07:15:15;94744.69;;;23.30;51.25
18790;BME280;9523;42.650;23.386;2022-07-05T07:17:43;94752.88;;;23.41;50.52
18790;BME280;9523;42.650;23.386;2022-07-05T07:20:11;94740.66;;;23.44;49.74
18790;BME280;9523;42.650;23.386;2022-07-05T07:22:38;94753.19;;;23.62;50.46
18790;BME280;9523;42.650;23.386;2022-07-05T07:25:05;94750.97;;;23.68;50.10
18790;BME280;9523;42.650;23.386;2022-07-05T07:27:41;94740.97;;;23.68;50.10
18790;BME280;9523;42.650;23.386;2022-07-05T07:30:10;94748.31;;;23.71;50.11
18790;BME280;9523;42.650;23.386;2022-07-05T07:32:37;94737.78;;;23.59;48.91
18790;BME280;9523;42.650;23.386;2022-07-05T07:35:06;94747.63;;;23.81;48.69
18790;BME280;9523;42.650;23.386;2022-07-05T07:37:33;94727.59;;;23.79;49.23
18790;BME280;9523;42.650;23.386;2022-07-05T07:40:00;94737.59;;;24.12;49.39
18790;BME280;9523;42.650;23.386;2022-07-05T07:42:28;94755.88;;;24.29;48.67
18790;BME280;9523;42.650;23.386;2022-07-05T07:44:55;94733.13;;;24.26;48.94
18790;BME280;9523;42.650;23.386;2022-07-05T07:47:22;94708.09;;;24.26;49.02
18790;BME280;9523;42.650;23.386;2022-07-05T07:49:49;94738.78;;;24.58;49.24
18790;BME280;9523;42.650;23.386;2022-07-05T07:52:18;94734.53;;;24.57;47.58
18790;BME280;9523;42.650;23.386;2022-07-05T07:54:45;94737.78;;;24.77;48.29
18790;BME280;9523;42.650;23.386;2022-07-05T07:57:14;94733.22;;;24.85;47.81
18790;BME280;9523;42.650;23.386;2022-07-05T07:59:41;94743.03;;;25.03;47.65
18790;BME280;9523;42.650;23.386;2022-07-05T08:02:08;94716.69;;;24.90;46.08
18790;BME280;9523;42.650;23.386;2022-07-05T08:04:36;94742.69;;;25.12;45.85
18790;BME280;9523;42.650;23.386;2022-07-05T08:07:03;94735.81;;;25.29;46.33
18790;BME280;9523;42.650;23.386;2022-07-05T08:09:32;94754.88;;;25.53;46.94
18790;BME280;9523;42.650;23.386;2022-07-05T08:11:59;94750.72;;;25.74;47.04
18790;BME280;9523;42.650;23.386;2022-07-05T08:14:26;94736.06;;;25.75;47.50
18790;BME280;9523;42.650;23.386;2022-07-05T08:16:53;94747.75;;;26.07;46.55
18790;BME280;9523;42.650;23.386;2022-07-05T08:19:20;94746.22;;;26.13;45.28
18790;BME280;9523;42.650;23.386;2022-07-05T08:22:05;94747.81;;;26.32;44.45
18790;BME280;9523;42.650;23.386;2022-07-05T08:24:36;94749.41;;;26.43;45.45
18790;BME280;9523;42.650;23.386;2022-07-05T08:27:03;94744.75;;;26.65;44.05
18790;BME280;9523;42.650;23.386;2022-07-05T08:29:30;94743.97;;;26.64;45.20
18790;BME280;9523;42.650;23.386;2022-07-05T08:31:57;94721.59;;;26.71;43.84
18790;BME280;9523;42.650;23.386;2022-07-05T08:34:24;94743.63;;;26.94;41.22
18790;BME280;9523;42.650;23.386;2022-07-05T08:36:51;94728.53;;;26.97;42.31
18790;BME280;9523;42.650;23.386;2022-07-05T08:39:18;94689.09;;;26.82;42.95
18790;BME280;9523;42.650;23.386;2022-07-05T08:41:48;94731.22;;;27.18;43.24
18790;BME280;9523;42.650;23.386;2022-07-05T08:44:18;94731.56;;;27.31;43.77
18790;BME280;9523;42.650;23.386;2022-07-05T08:46:45;94699.06;;;27.27;41.84
18790;BME280;9523;42.650;23.386;2022-07-05T08:49:13;94729.56;;;27.56;41.24
18790;BME280;9523;42.650;23.386;2022-07-05T08:51:42;94722.94;;;27.68;40.55
18790;BME280;9523;42.650;23.386;2022-07-05T08:54:10;94708.13;;;27.93;41.39
18790;BME280;9523;42.650;23.386;2022-07-05T08:56:37;94717.31;;;28.17;42.21
18790;BME280;9523;42.650;23.386;2022-07-05T08:59:06;94649.19;;;28.01;41.23
18790;BME280;9523;42.650;23.386;2022-07-05T09:01:33;94721.63;;;28.70;40.40
18790;BME280;9523;42.650;23.386;2022-07-05T09:04:03;94715.19;;;28.94;41.11
18790;BME280;9523;42.650;23.386;2022-07-05T09:06:32;94705.25;;;29.18;40.64
18790;BME280;9523;42.650;23.386;2022-07-05T09:09:02;94677.31;;;29.17;40.34
18790;BME280;9523;42.650;23.386;2022-07-05T09:11:35;94669.75;;;29.35;39.68
18790;BME280;9523;42.650;23.386;2022-07-05T09:14:03;94702.00;;;29.67;38.83
18790;BME280;9523;42.650;23.386;2022-07-05T09:16:32;94711.94;;;29.81;39.46
18790;BME280;9523;42.650;23.386;2022-07-05T09:19:05;94665.75;;;29.77;38.88
18790;BME280;9523;42.650;23.386;2022-07-05T09:21:33;94658.91;;;29.96;37.42
18790;BME280;9523;42.650;23.386;2022-07-05T09:24:02;94696.84;;;30.34;36.75
18790;BME280;9523;42.650;23.386;2022-07-05T09:26:33;94689.41;;;30.38;37.66
18790;BME280;9523;42.650;23.386;2022-07-05T09:29:02;94680.56;;;30.57;37.81
18790;BME280;9523;42.650;23.386;2022-07-05T09:31:30;94628.19;;;30.22;37.13
18790;BME280;9523;42.650;23.386;2022-07-05T09:34:06;94688.59;;;30.87;37.46
18790;BME280;9523;42.650;23.386;2022-07-05T09:36:50;94655.16;;;31.30;33.83
18790;BME280;9523;42.650;23.386;2022-07-05T09:39:18;94648.41;;;32.62;35.73
18790;BME280;9523;42.650;23.386;2022-07-05T09:41:45;94638.06;;;33.84;32.66
18790;BME280;9523;42.650;23.386;2022-07-05T09:44:24;94668.44;;;34.66;31.54
18790;BME280;9523;42.650;23.386;2022-07-05T09:47:07;94653.66;;;36.19;30.89
18790;BME280;9523;42.650;23.386;2022-07-05T09:49:37;94629.56;;;37.27;30.19
18790;BME280;9523;42.650;23.386;2022-07-05T09:52:05;94677.28;;;37.69;28.94
18790;BME280;9523;42.650;23.386;2022-07-05T09:54:32;94634.28;;;39.12;27.16
18790;BME280;9523;42.650;23.386;2022-07-05T09:57:00;94666.97;;;40.11;25.63
18790;BME280;9523;42.650;23.386;2022-07-05T09:59:27;94653.88;;;39.53;25.16
18790;BME280;9523;42.650;23.386;2022-07-05T10:01:54;94645.09;;;40.57;24.87
18790;BME280;9523;42.650;23.386;2022-07-05T10:04:21;94654.97;;;41.18;23.21
18790;BME280;9523;42.650;23.386;2022-07-05T10:06:50;94658.56;;;41.45;23.83
18790;BME280;9523;42.650;23.386;2022-07-05T10:09:18;94651.97;;;41.62;23.77
18790;BME280;9523;42.650;23.386;2022-07-05T10:11:45;94632.91;;;41.44;23.09
18790;BME280;9523;42.650;23.386;2022-07-05T10:14:17;94630.56;;;41.63;22.71
18790;BME280;9523;42.650;23.386;2022-07-05T10:16:56;94602.94;;;41.43;22.67
18790;BME280;9523;42.650;23.386;2022-07-05T10:19:28;94620.66;;;40.55;23.97
18790;BME280;9523;42.650;23.386;2022-07-05T10:21:57;94639.22;;;40.69;23.92
18790;BME280;9523;42.650;23.386;2022-07-05T10:24:25;94624.09;;;41.25;23.05
18790;BME280;9523;42.650;23.386;2022-07-05T10:26:53;94627.22;;;40.72;23.99
18790;BME280;9523;42.650;23.386;2022-07-05T10:29:21;94601.53;;;41.33;22.79
18790;BME280;9523;42.650;23.386;2022-07-05T10:31:48;94622.66;;;40.90;22.83
18790;BME280;9523;42.650;23.386;2022-07-05T10:34:16;94610.44;;;41.88;22.53
18790;BME280;9523;42.650;23.386;2022-07-05T10:36:44;94606.03;;;42.39;21.01
18790;BME280;9523;42.650;23.386;2022-07-05T10:39:15;94607.06;;;42.89;22.79
18790;BME280;9523;42.650;23.386;2022-07-05T10:41:42;94606.09;;;42.98;21.71
18790;BME280;9523;42.650;23.386;2022-07-05T10:44:11;94581.94;;;42.19;21.26
18790;BME280;9523;42.650;23.386;2022-07-05T10:46:52;94585.16;;;42.49;22.23
18790;BME280;9523;42.650;23.386;2022-07-05T10:49:33;94603.50;;;42.41;21.43
18790;BME280;9523;42.650;23.386;2022-07-05T10:52:00;94602.06;;;42.51;20.37
18790;BME280;9523;42.650;23.386;2022-07-05T10:54:28;94598.59;;;42.61;22.54
18790;BME280;9523;42.650;23.386;2022-07-05T10:57:21;94593.53;;;43.08;20.82
18790;BME280;9523;42.650;23.386;2022-07-05T11:00:04;94579.72;;;42.29;21.68
18790;BME280;9523;42.650;23.386;2022-07-05T11:02:32;94590.44;;;42.95;21.41
18790;BME280;9523;42.650;23.386;2022-07-05T11:05:03;94592.44;;;42.89;21.65
18790;BME280;9523;42.650;23.386;2022-07-05T11:07:58;94587.38;;;42.82;21.61
18790;BME280;9523;42.650;23.386;2022-07-05T11:10:27;94547.78;;;42.92;21.96
18790;BME280;9523;42.650;23.386;2022-07-05T11:12:56;94551.00;;;43.61;21.54
18790;BME280;9523;42.650;23.386;2022-07-05T11:15:23;94569.91;;;42.70;21.60
18790;BME280;9523;42.650;23.386;2022-07-05T11:18:13;94564.81;;;43.22;21.37
18790;BME280;9523;42.650;23.386;2022-07-05T11:20:40;94547.28;;;42.88;21.15
18790;BME280;9523;42.650;23.386;2022-07-05T11:23:09;94559.16;;;41.47;22.03
18790;BME280;9523;42.650;23.386;2022-07-05T11:25:42;94559.91;;;42.04;21.13
18790;BME280;9523;42.650;23.386;2022-07-05T11:28:18;94577.28;;;42.05;21.91
18790;BME280;9523;42.650;23.386;2022-07-05T11:30:47;94575.03;;;42.03;22.11
18790;BME280;9523;42.650;23.386;2022-07-05T11:33:35;94535.78;;;41.48;23.22
18790;BME280;9523;42.650;23.386;2022-07-05T11:36:03;94555.25;;;41.59;22.16
18790;BME280;9523;42.650;23.386;2022-07-05T11:38:32;94547.03;;;41.18;21.71
18790;BME280;9523;42.650;23.386;2022-07-05T11:41:14;94565.75;;;38.48;23.22
18790;BME280;9523;42.650;23.386;2022-07-05T11:43:42;94545.75;;;38.63;24.89
18790;BME280;9523;42.650;23.386;2022-07-05T11:46:09;94562.59;;;38.88;24.74
18790;BME280;9523;42.650;23.386;2022-07-05T11:48:37;94558.63;;;39.04;25.98
18790;BME280;9523;42.650;23.386;2022-07-05T11:51:14;94562.59;;;39.03;nan
18790;BME280;9523;42.650;23.386;2022-07-05T11:53:43;94557.84;;;38.89;24.57
18790;BME280;9523;42.650;23.386;2022-07-05T11:56:12;94530.59;;;38.58;26.00
18790;BME280;9523;42.650;23.386;2022-07-05T11:58:39;94544.13;;;38.23;25.96
18790;BME280;9523;42.650;23.386;2022-07-05T12:01:06;94511.34;;;37.69;26.37
18790;BME280;9523;42.650;23.386;2022-07-05T12:03:33;94532.34;;;37.57;27.23
18790;BME280;9523;42.650;23.386;2022-07-05T12:06:10;94532.22;;;37.42;27.86
18790;BME280;9523;42.650;23.386;2022-07-05T12:08:38;94535.47;;;37.04;26.98
18790;BME280;9523;42.650;23.386;2022-07-05T12:11:05;94471.59;;;36.18;27.17
18790;BME280;9523;42.650;23.386;2022-07-05T12:13:51;94507.47;;;36.51;28.07
18790;BME280;9523;42.650;23.386;2022-07-05T12:16:18;94443.47;;;35.56;28.02
18790;BME280;9523;42.650;23.386;2022-07-05T12:18:52;94517.13;;;35.58;28.93
18790;BME280;9523;42.650;23.386;2022-07-05T12:21:21;94509.25;;;35.38;29.03
18790;BME280;9523;42.650;23.386;2022-07-05T12:23:49;94512.31;;;35.40;29.84
18790;BME280;9523;42.650;23.386;2022-07-05T12:26:18;94509.97;;;35.60;30.07
18790;BME280;9523;42.650;23.386;2022-07-05T12:28:45;94512.91;;;35.66;30.12
18790;BME280;9523;42.650;23.386;2022-07-05T12:31:19;94504.84;;;35.71;31.39
18790;BME280;9523;42.650;23.386;2022-07-05T12:33:46;94487.34;;;35.78;30.25
18790;BME280;9523;42.650;23.386;2022-07-05T12:36:13;94490.31;;;36.02;29.95
18790;BME280;9523;42.650;23.386;2022-07-05T12:38:41;94509.81;;;36.04;28.84
18790;BME280;9523;42.650;23.386;2022-07-05T12:41:08;94504.94;;;35.99;29.88
18790;BME280;9523;42.650;23.386;2022-07-05T12:43:48;94496.84;;;35.95;29.13
18790;BME280;9523;42.650;23.386;2022-07-05T12:46:16;94466.34;;;35.53;29.01
18790;BME280;9523;42.650;23.386;2022-07-05T12:48:44;94496.03;;;35.76;30.52
18790;BME280;9523;42.650;23.386;2022-07-05T12:51:12;94488.00;;;36.00;30.18
18790;BME280;9523;42.650;23.386;2022-07-05T12:53:46;94472.66;;;36.21;30.87
18790;BME280;9523;42.650;23.386;2022-07-05T12:56:38;94470.69;;;36.21;28.87
18790;BME280;9523;42.650;23.386;2022-07-05T12:59:22;94480.91;;;36.21;28.80
18790;BME280;9523;42.650;23.386;2022-07-05T13:01:49;94470.69;;;36.21;28.57
18790;BME280;9523;42.650;23.386;2022-07-05T13:04:18;94454.25;;;36.58;28.94
18790;BME280;9523;42.650;23.386;2022-07-05T13:06:48;94425.66;;;36.28;28.82
18790;BME280;9523;42.650;23.386;2022-07-05T13:09:29;94421.81;;;35.98;27.98